createdAt,value
2022-08-25T00:01:51.960Z,100384.97
2022-08-25T00:04:19.255Z,100393.50
2022-08-25T00:06:48.559Z,100389.97
2022-08-25T00:09:18.373Z,100389.09
2022-08-25T00:11:45.226Z,100394.09
2022-08-25T00:14:17.085Z,100392.56
2022-08-25T00:16:44.127Z,100393.25
2022-08-25T00:19:15.906Z,100387.81
2022-08-25T00:21:45.174Z,100391.19
2022-08-25T00:24:13.687Z,100389.50
2022-08-25T00:26:43.585Z,100384.69
2022-08-25T00:29:10.971Z,100385.84
2022-08-25T00:31:38.647Z,100387.53
2022-08-25T00:34:12.452Z,100380.38
2022-08-25T00:36:39.297Z,100385.34
2022-08-25T00:39:07.560Z,100385.16
2022-08-25T00:41:35.425Z,100384.69
2022-08-25T00:44:05.513Z,100382.81
2022-08-25T00:46:38.822Z,100388.06
2022-08-25T00:49:25.065Z,100389.97
2022-08-25T00:52:13.258Z,100380.84
2022-08-25T00:54:49.595Z,100381.47
2022-08-25T00:57:22.114Z,100379.84
2022-08-25T01:00:01.940Z,100374.78
2022-08-25T01:02:28.540Z,100379.47
2022-08-25T01:04:55.113Z,100372.81
2022-08-25T01:07:24.013Z,100373.47
2022-08-25T01:09:52.479Z,100375.16
2022-08-25T01:12:19.198Z,100381.63
2022-08-25T01:14:46.710Z,100378.25
2022-08-25T01:17:14.659Z,100371.13
2022-08-25T01:19:41.543Z,100375.44
2022-08-25T01:22:08.564Z,100374.59
2022-08-25T01:24:46.953Z,100369.81
2022-08-25T01:27:14.165Z,100379.38
2022-08-25T01:29:41.418Z,100370.91
2022-08-25T01:32:12.103Z,100373.53
2022-08-25T01:34:41.508Z,100381.25
2022-08-25T01:37:13.379Z,100370.22
2022-08-25T01:39:40.683Z,100372.41
2022-08-25T01:42:07.235Z,100379.06
2022-08-25T01:44:36.024Z,100366.94
2022-08-25T01:47:04.654Z,100373.44
2022-08-25T01:49:31.164Z,100378.22
2022-08-25T01:52:11.297Z,100370.78
2022-08-25T01:54:38.170Z,100363.28
2022-08-25T01:57:04.921Z,100369.19
2022-08-25T01:59:31.590Z,100369.88
2022-08-25T02:01:59.842Z,100377.00
2022-08-25T02:04:29.508Z,100371.09
2022-08-25T02:06:56.234Z,100367.69
2022-08-25T02:09:23.003Z,100370.50
2022-08-25T02:11:49.522Z,100367.09
2022-08-25T02:14:17.122Z,100361.00
2022-08-25T02:16:48.862Z,100366.44
2022-08-25T02:19:16.796Z,100368.13
2022-08-25T02:21:43.967Z,100365.97
2022-08-25T02:24:12.064Z,100364.63
2022-08-25T02:26:39.013Z,100360.41
2022-08-25T02:29:07.540Z,100359.28
2022-08-25T02:31:34.859Z,100363.06
2022-08-25T02:34:02.377Z,100364.75
2022-08-25T02:36:30.717Z,100359.22
2022-08-25T02:38:57.259Z,100347.66
2022-08-25T02:41:31.630Z,100348.88
2022-08-25T02:43:59.053Z,100353.00
2022-08-25T02:46:25.737Z,100355.72
2022-08-25T02:48:53.292Z,100362.19
2022-08-25T02:51:22.473Z,100357.75
2022-08-25T02:53:49.832Z,100356.06
2022-08-25T02:56:18.283Z,100350.81
2022-08-25T02:58:45.973Z,100353.94
2022-08-25T03:01:14.066Z,100356.13
2022-08-25T03:03:44.322Z,100348.97
2022-08-25T03:06:13.835Z,100351.69
2022-08-25T03:08:42.094Z,100357.47
2022-08-25T03:11:09.265Z,100346.25
2022-08-25T03:13:36.652Z,100344.38
2022-08-25T03:16:04.925Z,100345.56
2022-08-25T03:18:31.895Z,100347.06
2022-08-25T03:20:59.227Z,100348.59
2022-08-25T03:23:26.217Z,100334.16
2022-08-25T03:26:15.128Z,100339.09
2022-08-25T03:28:42.047Z,100347.91
2022-08-25T03:31:09.323Z,100343.66
2022-08-25T03:33:36.883Z,100348.78
2022-08-25T03:36:04.124Z,100349.81
2022-08-25T03:38:30.708Z,100358.50
2022-08-25T03:40:57.582Z,100356.66
2022-08-25T03:43:24.118Z,100356.34
2022-08-25T03:45:50.867Z,100351.25
2022-08-25T03:48:18.133Z,100358.03
2022-08-25T03:50:52.065Z,100348.84
2022-08-25T03:53:19.974Z,100351.56
2022-08-25T03:55:46.754Z,100351.06
2022-08-25T03:58:13.563Z,100351.06
2022-08-25T04:00:40.878Z,100357.53
2022-08-25T04:03:07.791Z,100358.75
2022-08-25T04:05:35.303Z,100356.19
2022-08-25T04:08:02.104Z,100357.72
2022-08-25T04:10:29.586Z,100360.97
2022-08-25T04:12:57.353Z,100360.28
2022-08-25T04:15:24.940Z,100366.09
2022-08-25T04:17:57.083Z,100367.44
2022-08-25T04:20:23.615Z,100364.91
2022-08-25T04:22:50.121Z,100369.13
2022-08-25T04:25:16.886Z,100365.06
2022-08-25T04:27:43.396Z,100364.59
2022-08-25T04:30:10.871Z,100366.25
2022-08-25T04:32:37.603Z,100361.09
2022-08-25T04:35:05.369Z,100366.84
2022-08-25T04:37:33.382Z,100360.69
2022-08-25T04:40:00.159Z,100359.97
2022-08-25T04:42:27.020Z,100355.72
2022-08-25T04:44:54.634Z,100363.88
2022-08-25T04:47:22.106Z,100357.75
2022-08-25T04:49:48.669Z,100353.31
2022-08-25T04:52:15.342Z,100354.44
2022-08-25T04:54:42.518Z,100352.66
2022-08-25T04:57:09.541Z,100353.81
2022-08-25T04:59:36.124Z,100361.34
2022-08-25T05:02:05.124Z,100359.41
2022-08-25T05:04:35.916Z,100350.19
2022-08-25T05:07:03.391Z,100357.81
2022-08-25T05:09:32.392Z,100360.81
2022-08-25T05:12:01.118Z,100362.63
2022-08-25T05:14:28.743Z,100356.25
2022-08-25T05:16:56.432Z,100358.03
2022-08-25T05:19:26.396Z,100348.13
2022-08-25T05:21:53.758Z,100358.25
2022-08-25T05:24:21.058Z,100357.31
2022-08-25T05:26:47.649Z,100354.50
2022-08-25T05:29:14.490Z,100355.47
2022-08-25T05:31:47.061Z,100353.69
2022-08-25T05:34:18.386Z,100358.00
2022-08-25T05:36:44.965Z,100358.09
2022-08-25T05:39:11.540Z,100357.13
2022-08-25T05:41:38.564Z,100352.63
2022-08-25T05:44:05.151Z,100346.41
2022-08-25T05:46:31.989Z,100358.88
2022-08-25T05:48:59.168Z,100348.72
2022-08-25T05:51:26.638Z,100351.13
2022-08-25T05:53:53.381Z,100350.84
2022-08-25T05:56:20.326Z,100355.28
2022-08-25T05:58:47.613Z,100343.25
2022-08-25T06:01:45.398Z,100343.78
2022-08-25T06:04:13.608Z,100342.59
2022-08-25T06:06:40.609Z,100336.59
2022-08-25T06:09:09.464Z,100345.50
2022-08-25T06:11:38.030Z,100338.66
2022-08-25T06:14:04.781Z,100352.78
2022-08-25T06:16:31.672Z,100345.28
2022-08-25T06:18:58.482Z,100340.31
2022-08-25T06:21:25.308Z,100350.09
2022-08-25T06:23:52.818Z,100345.75
2022-08-25T06:26:21.119Z,100345.63
2022-08-25T06:28:49.019Z,100345.91
2022-08-25T06:31:15.661Z,100344.47
2022-08-25T06:33:42.430Z,100355.66
2022-08-25T06:36:09.028Z,100356.94
2022-08-25T06:38:36.160Z,100361.22
2022-08-25T06:41:04.495Z,100370.53
2022-08-25T06:43:33.135Z,100357.25
2022-08-25T06:46:14.828Z,100362.97
2022-08-25T06:48:41.466Z,100365.50
2022-08-25T06:51:10.643Z,100363.00
2022-08-25T06:53:41.014Z,100364.25
2022-08-25T06:56:07.593Z,100362.16
2022-08-25T06:58:34.325Z,100369.31
2022-08-25T07:01:23.562Z,100368.69
2022-08-25T07:03:57.342Z,100359.41
2022-08-25T07:06:25.010Z,100364.84
2022-08-25T07:08:51.597Z,100368.84
2022-08-25T07:11:18.574Z,100370.06
2022-08-25T07:13:45.888Z,100367.47
2022-08-25T07:16:15.352Z,100364.75
2022-08-25T07:18:44.155Z,100361.13
2022-08-25T07:21:12.338Z,100363.81
2022-08-25T07:23:40.067Z,100369.44
2022-08-25T07:26:36.677Z,100365.81
2022-08-25T07:29:08.065Z,100363.41
2022-08-25T07:31:34.969Z,100363.16
2022-08-25T07:34:20.254Z,100364.34
2022-08-25T07:36:46.963Z,100368.72
2022-08-25T07:39:13.507Z,100367.38
2022-08-25T07:41:41.970Z,100360.97
2022-08-25T07:44:10.542Z,100363.47
2022-08-25T07:46:37.518Z,100355.53
2022-08-25T07:49:04.948Z,100355.66
2022-08-25T07:51:44.159Z,100359.50
2022-08-25T07:54:34.129Z,100347.06
2022-08-25T07:57:01.648Z,100351.00
2022-08-25T07:59:28.291Z,100355.09
2022-08-25T08:01:54.930Z,100357.44
2022-08-25T08:04:22.341Z,100352.25
2022-08-25T08:06:49.083Z,100354.81
2022-08-25T08:09:16.270Z,100351.78
2022-08-25T08:11:51.484Z,100355.72
2022-08-25T08:14:21.362Z,100355.28
2022-08-25T08:16:48.026Z,100354.63
2022-08-25T08:19:15.587Z,100350.78
2022-08-25T08:21:42.390Z,100366.88
2022-08-25T08:24:24.865Z,100365.19
2022-08-25T08:26:59.073Z,100363.88
2022-08-25T08:29:26.905Z,100361.41
2022-08-25T08:31:53.542Z,100354.88
2022-08-25T08:34:24.947Z,100362.03
2022-08-25T08:36:52.479Z,100352.22
2022-08-25T08:39:19.145Z,100351.47
2022-08-25T08:42:17.367Z,100354.47
2022-08-25T08:44:47.056Z,100353.00
2022-08-25T08:47:36.349Z,100350.00
2022-08-25T08:50:12.185Z,100351.91
2022-08-25T08:52:39.696Z,100349.59
2022-08-25T08:55:13.928Z,100343.22
2022-08-25T08:57:45.385Z,100340.78
2022-08-25T09:00:13.262Z,100350.63
2022-08-25T09:02:52.152Z,100347.22
2022-08-25T09:05:20.935Z,100346.44
2022-08-25T09:08:15.721Z,100344.88
2022-08-25T09:11:18.875Z,100342.22
2022-08-25T09:14:04.443Z,100340.13
2022-08-25T09:16:56.021Z,100340.22
2022-08-25T09:19:32.080Z,100332.09
2022-08-25T09:22:33.982Z,100325.69
2022-08-25T09:25:08.861Z,100322.53
2022-08-25T09:27:46.906Z,100316.53
2022-08-25T09:30:17.231Z,100312.91
2022-08-25T09:32:52.593Z,100315.78
2022-08-25T09:35:23.891Z,100303.50
2022-08-25T09:38:00.650Z,100306.63
2022-08-25T09:40:30.854Z,100303.91
2022-08-25T09:42:59.639Z,100303.00
2022-08-25T09:45:45.562Z,100294.19
2022-08-25T09:48:22.633Z,100294.22
2022-08-25T09:50:52.025Z,100286.28
2022-08-25T09:53:21.853Z,100290.81
2022-08-25T09:56:00.193Z,100278.09
2022-08-25T09:58:27.519Z,100282.09
2022-08-25T10:01:05.490Z,100271.66
2022-08-25T10:03:36.668Z,100270.69
2022-08-25T10:06:13.108Z,100273.06
2022-08-25T10:08:55.585Z,100268.41
2022-08-25T10:11:30.987Z,100275.13
2022-08-25T10:14:14.165Z,100259.34
2022-08-25T10:16:40.924Z,100263.28
2022-08-25T10:19:27.446Z,100260.63
2022-08-25T10:22:10.911Z,100255.03
2022-08-25T10:24:41.091Z,100261.13
2022-08-25T10:27:30.318Z,100263.91
2022-08-25T10:29:57.028Z,100248.41
2022-08-25T10:32:32.838Z,100254.03
2022-08-25T10:35:09.310Z,100249.03
2022-08-25T10:37:57.099Z,100245.47
2022-08-25T10:40:51.762Z,100243.25
2022-08-25T10:43:33.659Z,100239.91
2022-08-25T10:46:29.549Z,100241.03
2022-08-25T10:49:08.560Z,100242.66
2022-08-25T10:51:50.936Z,100235.41
2022-08-25T10:54:44.567Z,100226.44
2022-08-25T10:57:40.937Z,100225.84
2022-08-25T11:00:14.507Z,100228.88
2022-08-25T11:02:42.428Z,100214.88
2022-08-25T11:05:26.279Z,100212.22
2022-08-25T11:08:37.670Z,100214.41
2022-08-25T11:11:11.522Z,100211.00
2022-08-25T11:14:06.388Z,100210.81
2022-08-25T11:16:52.623Z,100206.44
2022-08-25T11:19:26.881Z,100204.16
2022-08-25T11:22:15.296Z,100203.78
2022-08-25T11:25:04.510Z,100198.06
2022-08-25T11:27:55.247Z,100196.75
2022-08-25T11:30:22.510Z,100194.50
2022-08-25T11:32:55.083Z,100188.84
2022-08-25T11:35:49.342Z,100181.66
2022-08-25T11:38:25.184Z,100173.44
2022-08-25T11:41:11.257Z,100176.03
2022-08-25T11:44:15.700Z,100166.84
2022-08-25T11:46:42.071Z,100168.31
2022-08-25T11:49:27.650Z,100168.06
2022-08-25T11:51:55.606Z,100160.91
2022-08-25T11:54:45.677Z,100161.03
2022-08-25T11:57:26.346Z,100157.69
2022-08-25T11:59:53.312Z,100159.00
2022-08-25T12:02:36.488Z,100161.88
2022-08-25T12:05:11.838Z,100153.53
2022-08-25T12:07:47.405Z,100146.81
2022-08-25T12:10:25.681Z,100154.88
2022-08-25T12:13:01.931Z,100149.72
2022-08-25T12:15:31.320Z,100147.81
2022-08-25T12:18:10.170Z,100151.66
2022-08-25T12:20:53.147Z,100153.69
2022-08-25T12:23:34.571Z,100144.19
2022-08-25T12:26:30.414Z,100147.78
2022-08-25T12:29:08.263Z,100135.25
2022-08-25T12:31:56.978Z,100131.28
2022-08-25T12:34:31.599Z,100141.25
2022-08-25T12:37:14.085Z,100134.41
2022-08-25T12:39:51.143Z,100133.06
2022-08-25T12:42:31.417Z,100131.72
2022-08-25T12:45:08.810Z,100128.47
2022-08-25T12:47:37.777Z,100121.78
2022-08-25T12:50:43.787Z,100125.13
2022-08-25T12:53:18.141Z,100119.97
2022-08-25T12:55:50.019Z,100118.31
2022-08-25T12:58:17.015Z,100117.25
2022-08-25T13:01:17.587Z,100112.66
2022-08-25T13:04:17.935Z,100106.34
2022-08-25T13:06:59.711Z,100116.56
2022-08-25T13:09:51.997Z,100106.56
2022-08-25T13:12:29.877Z,100107.97
2022-08-25T13:14:58.939Z,100103.91
2022-08-25T13:17:29.074Z,100104.56
2022-08-25T13:20:23.336Z,100109.84
2022-08-25T13:22:57.438Z,100101.06
2022-08-25T13:25:32.659Z,100097.31
2022-08-25T13:28:06.453Z,100095.13
2022-08-25T13:30:39.165Z,100093.84
2022-08-25T13:33:21.809Z,100091.84
2022-08-25T13:36:13.690Z,100096.31
2022-08-25T13:38:41.042Z,100089.59
2022-08-25T13:41:18.647Z,100093.84
2022-08-25T13:43:45.516Z,100077.59
2022-08-25T13:46:12.445Z,100078.22
2022-08-25T13:48:49.291Z,100084.06
2022-08-25T13:51:31.714Z,100075.78
2022-08-25T13:54:05.816Z,100085.09
2022-08-25T13:56:41.199Z,100078.97
2022-08-25T13:59:25.747Z,100082.97
2022-08-25T14:01:54.787Z,100074.28
2022-08-25T14:04:26.866Z,100069.94
2022-08-25T14:07:33.783Z,100068.13
2022-08-25T14:10:06.640Z,100069.28
2022-08-25T14:12:46.402Z,100070.28
2022-08-25T14:15:21.952Z,100066.09
2022-08-25T14:18:00.899Z,100063.41
2022-08-25T14:20:29.700Z,100067.28
2022-08-25T14:23:02.697Z,100058.66
2022-08-25T14:25:30.662Z,100066.41
2022-08-25T14:28:07.286Z,100063.09
2022-08-25T14:30:39.382Z,100064.13
2022-08-25T14:33:06.745Z,100055.22
2022-08-25T14:35:33.948Z,100056.38
2022-08-25T14:38:10.447Z,100057.38
2022-08-25T14:40:38.627Z,100047.19
2022-08-25T14:43:09.617Z,100040.09
2022-08-25T14:45:40.449Z,100046.13
2022-08-25T14:48:18.018Z,100045.03
2022-08-25T14:50:45.310Z,100046.75
2022-08-25T14:53:12.258Z,100051.41
2022-08-25T14:55:38.915Z,100047.50
2022-08-25T14:58:06.920Z,100042.91
2022-08-25T15:00:37.420Z,100046.00
2022-08-25T15:03:04.186Z,100040.25
2022-08-25T15:05:31.900Z,100035.84
2022-08-25T15:08:17.030Z,100045.56
2022-08-25T15:10:44.221Z,100033.38
2022-08-25T15:13:11.030Z,100040.25
2022-08-25T15:15:52.167Z,100039.34
2022-08-25T15:18:20.970Z,100035.66
2022-08-25T15:20:50.007Z,100043.31
2022-08-25T15:23:17.681Z,100047.41
2022-08-25T15:25:46.221Z,100049.22
2022-08-25T15:28:13.009Z,100039.47
2022-08-25T15:30:45.969Z,100039.31
2022-08-25T15:33:13.865Z,100036.84
2022-08-25T15:35:41.101Z,100033.19
2022-08-25T15:38:08.227Z,100034.00
2022-08-25T15:40:37.525Z,100024.63
2022-08-25T15:43:05.706Z,100032.13
2022-08-25T15:45:35.826Z,100023.00
2022-08-25T15:48:02.742Z,100022.63
2022-08-25T15:50:30.015Z,100021.06
2022-08-25T15:52:56.675Z,100022.31
2022-08-25T15:55:23.499Z,100014.00
2022-08-25T15:57:50.294Z,100012.91
2022-08-25T16:00:18.368Z,100009.44
2022-08-25T16:02:45.414Z,100008.84
2022-08-25T16:05:13.784Z,100009.09
2022-08-25T16:07:45.831Z,100005.00
2022-08-25T16:10:13.672Z,100002.59
2022-08-25T16:12:42.630Z,100002.38
2022-08-25T16:15:12.125Z,100001.06
2022-08-25T16:17:40.711Z,99997.59
2022-08-25T16:20:12.578Z,100012.59
2022-08-25T16:22:40.906Z,100003.63
2022-08-25T16:25:07.876Z,100001.81
2022-08-25T16:27:38.675Z,100011.91
2022-08-25T16:30:07.111Z,100008.88
2022-08-25T16:32:33.627Z,100000.78
2022-08-25T16:35:00.645Z,99993.31
2022-08-25T16:37:27.795Z,100006.13
2022-08-25T16:39:56.591Z,100001.25
2022-08-25T16:42:23.211Z,100000.44
2022-08-25T16:44:49.765Z,99997.69
2022-08-25T16:47:20.614Z,100005.66
2022-08-25T16:49:51.954Z,99998.41
2022-08-25T16:52:36.992Z,100003.16
2022-08-25T16:55:13.096Z,99996.31
2022-08-25T16:57:55.094Z,100002.03
2022-08-25T17:00:28.328Z,100003.78
2022-08-25T17:03:00.346Z,100010.41
2022-08-25T17:05:29.160Z,100010.63
2022-08-25T17:08:15.099Z,100008.22
2022-08-25T17:10:43.608Z,100016.97
2022-08-25T17:13:11.340Z,100026.28
2022-08-25T17:15:43.345Z,100018.94
2022-08-25T17:18:11.170Z,100023.03
2022-08-25T17:20:38.328Z,100020.72
2022-08-25T17:23:12.018Z,100018.38
2022-08-25T17:25:42.996Z,100019.69
2022-08-25T17:28:11.922Z,100025.06
2022-08-25T17:30:39.325Z,100031.91
2022-08-25T17:33:05.988Z,100020.28
2022-08-25T17:35:37.637Z,100027.59
2022-08-25T17:38:04.256Z,100024.03
2022-08-25T17:40:33.575Z,100028.75
2022-08-25T17:43:01.668Z,100033.25
2022-08-25T17:45:28.236Z,100034.63
2022-08-25T17:47:55.091Z,100034.03
2022-08-25T17:50:22.183Z,100037.91
2022-08-25T17:52:49.110Z,100033.47
2022-08-25T17:55:15.662Z,100027.31
2022-08-25T17:57:42.422Z,100032.56
2022-08-25T18:00:12.022Z,100036.09
2022-08-25T18:02:39.854Z,100045.25
2022-08-25T18:05:07.062Z,100047.09
2022-08-25T18:07:33.733Z,100044.50
2022-08-25T18:10:00.526Z,100041.59
2022-08-25T18:12:27.523Z,100046.34
2022-08-25T18:14:54.311Z,100059.41
2022-08-25T18:17:21.934Z,100052.69
2022-08-25T18:19:49.633Z,100048.81
2022-08-25T18:22:16.879Z,100056.41
2022-08-25T18:24:44.476Z,100057.19
2022-08-25T18:27:13.545Z,100052.50
2022-08-25T18:29:41.354Z,100053.38
2022-08-25T18:32:09.482Z,100050.69
2022-08-25T18:34:39.046Z,100046.72
2022-08-25T18:37:25.487Z,100046.84
2022-08-25T18:40:10.508Z,100048.28
2022-08-25T18:42:37.145Z,100043.72
2022-08-25T18:45:07.206Z,100044.69
2022-08-25T18:47:38.928Z,100050.97
2022-08-25T18:50:06.099Z,100047.56
2022-08-25T18:52:32.821Z,100047.44
2022-08-25T18:55:00.299Z,100043.44
2022-08-25T18:57:27.803Z,100040.41
2022-08-25T18:59:55.550Z,100045.41
2022-08-25T19:02:22.273Z,100040.47
2022-08-25T19:04:52.624Z,100042.84
2022-08-25T19:07:19.687Z,100048.72
2022-08-25T19:09:46.375Z,100045.34
2022-08-25T19:12:22.137Z,100041.00
2022-08-25T19:14:49.592Z,100049.91
2022-08-25T19:17:17.302Z,100038.88
2022-08-25T19:19:44.167Z,100054.00
2022-08-25T19:22:31.649Z,100055.00
2022-08-25T19:24:58.402Z,100048.16
2022-08-25T19:27:25.355Z,100057.06
2022-08-25T19:29:52.403Z,100054.16
2022-08-25T19:32:19.098Z,100057.16
2022-08-25T19:34:47.375Z,100053.81
2022-08-25T19:37:18.394Z,100061.97
2022-08-25T19:39:52.957Z,100049.59
2022-08-25T19:42:37.008Z,100052.75
2022-08-25T19:45:08.532Z,100051.09
2022-08-25T19:47:35.188Z,100048.56
2022-08-25T19:50:01.840Z,100049.16
2022-08-25T19:52:28.831Z,100055.50
2022-08-25T19:54:55.760Z,100053.03
2022-08-25T19:57:28.154Z,100054.53
2022-08-25T20:00:13.920Z,100047.44
2022-08-25T20:02:40.561Z,100050.81
2022-08-25T20:05:08.200Z,100047.22
2022-08-25T20:07:37.863Z,100052.13
2022-08-25T20:10:08.854Z,100047.59
2022-08-25T20:12:41.709Z,100046.28
2022-08-25T20:15:10.041Z,100051.66
2022-08-25T20:17:36.602Z,100054.44
2022-08-25T20:20:10.755Z,100053.84
2022-08-25T20:22:37.998Z,100053.22
2022-08-25T20:25:15.171Z,100053.47
2022-08-25T20:27:47.658Z,100049.53
2022-08-25T20:30:22.246Z,100052.88
2022-08-25T20:32:50.633Z,100053.22
2022-08-25T20:35:18.658Z,100050.94
2022-08-25T20:37:46.557Z,100049.97
2022-08-25T20:40:15.800Z,100053.56
2022-08-25T20:42:44.407Z,100055.34
2022-08-25T20:45:13.041Z,100057.84
2022-08-25T20:47:39.613Z,100056.06
2022-08-25T20:50:07.403Z,100054.13
2022-08-25T20:52:34.870Z,100057.78
2022-08-25T20:55:01.505Z,100054.22
2022-08-25T20:57:28.107Z,100047.72
2022-08-25T20:59:57.034Z,100056.19
2022-08-25T21:02:24.825Z,100054.66
2022-08-25T21:04:52.245Z,100056.41
2022-08-25T21:07:20.298Z,100058.50
2022-08-25T21:09:47.564Z,100061.41
2022-08-25T21:12:14.835Z,100051.25
2022-08-25T21:14:41.856Z,100050.25
2022-08-25T21:17:12.072Z,100054.69
2022-08-25T21:19:40.108Z,100050.03
2022-08-25T21:22:08.967Z,100050.72
2022-08-25T21:24:37.655Z,100044.16
2022-08-25T21:27:04.637Z,100036.63
2022-08-25T21:29:32.833Z,100039.34
2022-08-25T21:31:59.674Z,100039.63
2022-08-25T21:34:28.834Z,100033.31
2022-08-25T21:36:57.890Z,100034.38
2022-08-25T21:39:32.098Z,100034.59
2022-08-25T21:42:01.227Z,100043.53
2022-08-25T21:44:28.722Z,100044.22
2022-08-25T21:46:56.122Z,100040.34
2022-08-25T21:49:24.720Z,100038.19
2022-08-25T21:52:00.058Z,100040.50
2022-08-25T21:54:28.792Z,100036.91
2022-08-25T21:57:02.614Z,100036.44
2022-08-25T21:59:32.495Z,100038.19
2022-08-25T22:02:05.040Z,100046.22
2022-08-25T22:04:32.357Z,100038.44
2022-08-25T22:06:59.307Z,100043.94
2022-08-25T22:09:26.547Z,100041.69
2022-08-25T22:11:55.664Z,100045.50
2022-08-25T22:14:23.851Z,100040.66
2022-08-25T22:16:53.190Z,100040.50
2022-08-25T22:19:21.497Z,100039.41
2022-08-25T22:21:50.155Z,100038.56
2022-08-25T22:24:17.652Z,100041.09
2022-08-25T22:26:47.458Z,100043.41
2022-08-25T22:29:14.542Z,100044.44
2022-08-25T22:31:52.927Z,100045.22
2022-08-25T22:34:19.771Z,100044.75
2022-08-25T22:36:59.696Z,100047.81
2022-08-25T22:39:27.018Z,100040.75
2022-08-25T22:41:53.902Z,100042.53
2022-08-25T22:44:20.454Z,100042.75
2022-08-25T22:46:46.998Z,100038.34
2022-08-25T22:49:13.816Z,100032.47
2022-08-25T22:51:40.959Z,100037.59
2022-08-25T22:54:09.592Z,100034.47
2022-08-25T22:56:38.882Z,100031.16
2022-08-25T22:59:09.458Z,100030.97
2022-08-25T23:01:36.766Z,100032.66
2022-08-25T23:04:04.975Z,100032.28
2022-08-25T23:06:32.102Z,100025.59
2022-08-25T23:08:58.773Z,100031.50
2022-08-25T23:11:25.730Z,100025.19
2022-08-25T23:13:57.509Z,100027.75
2022-08-25T23:16:25.169Z,100030.31
2022-08-25T23:18:52.970Z,100028.91
2022-08-25T23:21:41.341Z,100023.31
2022-08-25T23:24:11.161Z,100031.34
2022-08-25T23:26:42.496Z,100025.47
2022-08-25T23:29:17.925Z,100034.34
2022-08-25T23:31:47.146Z,100025.09
2022-08-25T23:34:16.032Z,100022.56
2022-08-25T23:36:43.425Z,100029.97
2022-08-25T23:39:11.083Z,100022.44
2022-08-25T23:41:40.008Z,100022.03
2022-08-25T23:44:06.693Z,100025.25
2022-08-25T23:46:36.174Z,100017.53
2022-08-25T23:49:04.906Z,100015.44
2022-08-25T23:51:34.606Z,100013.53
2022-08-25T23:54:09.322Z,100020.50
2022-08-25T23:56:42.494Z,100019.63
2022-08-25T23:59:12.999Z,100020.25
